createdAt,value
2022-11-01T00:01:54.546Z,57.92
2022-11-01T00:04:23.104Z,57.56
2022-11-01T00:06:52.105Z,57.52
2022-11-01T00:09:20.515Z,57.47
2022-11-01T00:11:50.428Z,57.39
2022-11-01T00:14:21.017Z,57.32
2022-11-01T00:16:49.918Z,57.40
2022-11-01T00:19:18.558Z,57.44
2022-11-01T00:21:46.930Z,57.31
2022-11-01T00:24:15.342Z,57.19
2022-11-01T00:26:43.838Z,57.30
2022-11-01T00:29:14.428Z,57.33
2022-11-01T00:31:43.040Z,57.42
2022-11-01T00:34:11.347Z,57.18
2022-11-01T00:36:39.725Z,57.26
2022-11-01T00:39:08.271Z,57.22
2022-11-01T00:41:36.796Z,57.23
2022-11-01T00:44:05.358Z,57.21
2022-11-01T00:46:36.587Z,57.35
2022-11-01T00:49:05.077Z,57.21
2022-11-01T00:51:33.564Z,57.41
2022-11-01T00:54:01.883Z,57.32
2022-11-01T00:56:30.239Z,57.37
2022-11-01T00:58:58.596Z,57.31
2022-11-01T01:01:27.083Z,57.33
2022-11-01T01:03:56.866Z,57.39
2022-11-01T01:06:25.267Z,57.62
2022-11-01T01:08:53.680Z,57.49
2022-11-01T01:11:22.038Z,57.59
2022-11-01T01:13:50.370Z,57.57
2022-11-01T01:16:18.790Z,57.47
2022-11-01T01:18:47.176Z,57.62
2022-11-01T01:21:17.619Z,57.47
2022-11-01T01:23:46.947Z,57.40
2022-11-01T01:26:15.315Z,57.44
2022-11-01T01:28:44.885Z,57.66
2022-11-01T01:31:14.694Z,57.47
2022-11-01T01:33:43.117Z,57.38
2022-11-01T01:36:12.092Z,57.63
2022-11-01T01:38:41.843Z,57.37
2022-11-01T01:41:27.690Z,57.62
2022-11-01T01:43:56.075Z,57.57
2022-11-01T01:46:24.427Z,57.45
2022-11-01T01:49:00.194Z,57.70
2022-11-01T01:51:30.736Z,57.53
2022-11-01T01:54:00.698Z,57.55
2022-11-01T01:56:35.671Z,57.38
2022-11-01T01:59:07.833Z,57.45
2022-11-01T02:01:40.150Z,57.41
2022-11-01T02:04:17.045Z,57.67
2022-11-01T02:06:45.686Z,57.63
2022-11-01T02:09:19.075Z,57.52
2022-11-01T02:11:47.840Z,57.33
2022-11-01T02:14:17.724Z,57.52
2022-11-01T02:16:55.864Z,57.97
2022-11-01T02:20:26.593Z,57.90
2022-11-01T02:23:44.791Z,57.50
2022-11-01T02:26:34.311Z,57.60
2022-11-01T02:29:20.043Z,57.53
2022-11-01T02:32:12.676Z,57.60
2022-11-01T02:34:47.085Z,57.60
2022-11-01T02:37:23.725Z,57.44
2022-11-01T02:39:57.925Z,57.57
2022-11-01T02:42:32.718Z,57.47
2022-11-01T02:45:06.811Z,57.59
2022-11-01T02:47:37.871Z,57.27
2022-11-01T02:50:10.731Z,57.34
2022-11-01T02:52:42.836Z,57.34
2022-11-01T02:55:30.079Z,57.30
2022-11-01T02:58:02.287Z,57.24
2022-11-01T03:00:34.385Z,57.27
2022-11-01T03:03:13.501Z,57.41
2022-11-01T03:05:56.212Z,57.37
2022-11-01T03:08:28.798Z,57.20
2022-11-01T03:11:07.903Z,57.31
2022-11-01T03:13:54.572Z,57.18
2022-11-01T03:16:32.210Z,57.24
2022-11-01T03:19:19.038Z,57.31
2022-11-01T03:21:57.982Z,57.36
2022-11-01T03:24:29.993Z,57.21
2022-11-01T03:27:06.122Z,57.30
2022-11-01T03:29:37.707Z,57.21
2022-11-01T03:32:08.076Z,57.22
2022-11-01T03:34:40.151Z,57.06
2022-11-01T03:37:12.715Z,57.17
2022-11-01T03:39:46.956Z,57.20
2022-11-01T03:42:19.914Z,57.09
2022-11-01T03:44:55.360Z,57.16
2022-11-01T03:47:24.227Z,56.94
2022-11-01T03:50:16.832Z,57.12
2022-11-01T03:52:45.592Z,57.05
2022-11-01T03:55:20.893Z,56.84
2022-11-01T03:57:51.441Z,56.95
2022-11-01T04:00:22.484Z,56.95
2022-11-01T04:02:51.359Z,57.03
2022-11-01T04:05:22.977Z,56.94
2022-11-01T04:07:52.387Z,57.06
2022-11-01T04:10:23.979Z,56.64
2022-11-01T04:12:53.495Z,56.83
2022-11-01T04:15:42.003Z,57.06
2022-11-01T04:18:50.782Z,57.01
2022-11-01T04:21:23.091Z,56.85
2022-11-01T04:23:51.491Z,56.80
2022-11-01T04:26:22.126Z,56.86
2022-11-01T04:28:57.969Z,56.73
2022-11-01T04:31:28.453Z,56.86
2022-11-01T04:33:57.440Z,56.78
2022-11-01T04:36:27.994Z,56.73
2022-11-01T04:38:58.484Z,56.77
2022-11-01T04:41:29.219Z,56.69
2022-11-01T04:43:59.255Z,56.63
2022-11-01T04:46:30.841Z,56.65
2022-11-01T04:48:59.208Z,56.64
2022-11-01T04:51:29.044Z,56.70
2022-11-01T04:53:57.560Z,56.83
2022-11-01T04:56:25.908Z,56.51
2022-11-01T04:58:54.251Z,56.36
2022-11-01T05:01:22.645Z,56.55
2022-11-01T05:03:51.123Z,56.55
2022-11-01T05:06:19.457Z,56.55
2022-11-01T05:08:49.181Z,56.61
2022-11-01T05:11:17.528Z,56.45
2022-11-01T05:13:45.887Z,56.44
2022-11-01T05:16:19.317Z,56.52
2022-11-01T05:18:48.689Z,56.47
2022-11-01T05:21:17.299Z,56.36
2022-11-01T05:23:48.114Z,56.30
2022-11-01T05:26:17.923Z,56.51
2022-11-01T05:28:46.268Z,56.48
2022-11-01T05:31:14.623Z,56.31
2022-11-01T05:33:43.001Z,56.40
2022-11-01T05:36:11.515Z,56.36
2022-11-01T05:38:39.936Z,56.39
2022-11-01T05:41:08.384Z,56.52
2022-11-01T05:43:38.153Z,56.46
2022-11-01T05:46:07.201Z,56.44
2022-11-01T05:48:36.063Z,56.34
2022-11-01T05:51:04.450Z,56.30
2022-11-01T05:53:32.868Z,56.37
2022-11-01T05:56:01.497Z,56.32
2022-11-01T05:58:30.978Z,56.28
2022-11-01T06:01:02.073Z,56.21
2022-11-01T06:03:30.882Z,56.35
2022-11-01T06:05:59.722Z,56.33
2022-11-01T06:08:28.791Z,56.34
2022-11-01T06:11:03.770Z,56.53
2022-11-01T06:13:32.814Z,56.50
2022-11-01T06:16:04.420Z,56.56
2022-11-01T06:18:33.292Z,56.56
2022-11-01T06:21:01.653Z,56.56
2022-11-01T06:23:30.016Z,56.58
2022-11-01T06:26:02.837Z,56.47
2022-11-01T06:28:31.255Z,56.31
2022-11-01T06:33:34.194Z,56.54
2022-11-01T06:36:03.127Z,56.38
2022-11-01T06:38:31.705Z,56.53
2022-11-01T06:41:00.103Z,56.57
2022-11-01T06:43:28.476Z,56.50
2022-11-01T06:45:56.849Z,56.56
2022-11-01T06:48:26.558Z,56.55
2022-11-01T06:50:55.921Z,56.56
2022-11-01T06:53:25.435Z,56.53
2022-11-01T06:55:53.980Z,56.50
2022-11-01T06:58:22.385Z,56.43
2022-11-01T07:00:51.464Z,56.41
2022-11-01T07:03:20.478Z,56.45
2022-11-01T07:05:50.602Z,56.38
2022-11-01T07:08:19.111Z,56.31
2022-11-01T07:10:47.516Z,56.25
2022-11-01T07:13:15.879Z,56.21
2022-11-01T07:15:44.361Z,56.22
2022-11-01T07:18:12.846Z,56.13
2022-11-01T07:20:44.518Z,56.11
2022-11-01T07:23:16.464Z,56.15
2022-11-01T07:25:45.487Z,56.11
2022-11-01T07:28:13.850Z,56.16
2022-11-01T07:30:42.251Z,56.26
2022-11-01T07:33:11.045Z,56.15
2022-11-01T07:35:39.405Z,56.23
2022-11-01T07:38:09.853Z,56.16
2022-11-01T07:40:42.918Z,56.17
2022-11-01T07:43:11.566Z,56.19
2022-11-01T07:45:39.985Z,56.22
2022-11-01T07:48:11.839Z,56.37
2022-11-01T07:50:42.158Z,56.17
2022-11-01T07:53:13.146Z,56.07
2022-11-01T07:55:43.880Z,56.12
2022-11-01T07:58:13.114Z,56.24
2022-11-01T08:00:44.404Z,56.16
2022-11-01T08:03:14.963Z,56.04
2022-11-01T08:05:44.959Z,55.92
2022-11-01T08:08:13.724Z,55.86
2022-11-01T08:10:43.941Z,56.00
2022-11-01T08:13:18.815Z,55.76
2022-11-01T08:15:48.319Z,55.70
2022-11-01T08:18:17.397Z,55.72
2022-11-01T08:20:46.119Z,55.82
2022-11-01T08:23:14.813Z,55.45
2022-11-01T08:25:44.880Z,55.45
2022-11-01T08:28:16.675Z,55.41
2022-11-01T08:30:47.681Z,55.48
2022-11-01T08:33:16.100Z,55.77
2022-11-01T08:35:50.073Z,55.53
2022-11-01T08:38:18.883Z,55.54
2022-11-01T08:40:49.177Z,55.42
2022-11-01T08:43:17.796Z,55.40
2022-11-01T08:45:46.182Z,55.41
2022-11-01T08:48:14.950Z,55.50
2022-11-01T08:50:43.370Z,55.52
2022-11-01T08:53:15.211Z,55.31
2022-11-01T08:55:43.674Z,55.16
2022-11-01T08:58:13.601Z,55.23
2022-11-01T09:00:42.578Z,55.31
2022-11-01T09:03:10.953Z,55.40
2022-11-01T09:05:39.373Z,55.19
2022-11-01T09:08:08.157Z,55.17
2022-11-01T09:10:36.596Z,55.02
2022-11-01T09:13:05.335Z,54.80
2022-11-01T09:15:35.365Z,54.71
2022-11-01T09:18:07.420Z,54.80
2022-11-01T09:20:36.001Z,54.84
2022-11-01T09:23:04.933Z,54.74
2022-11-01T09:25:33.578Z,54.64
2022-11-01T09:28:02.121Z,54.61
2022-11-01T09:30:31.032Z,54.74
2022-11-01T09:33:04.834Z,54.84
2022-11-01T09:35:33.405Z,54.86
2022-11-01T09:38:03.071Z,54.89
2022-11-01T09:40:39.191Z,54.76
2022-11-01T09:43:10.638Z,54.76
2022-11-01T09:45:39.282Z,54.56
2022-11-01T09:48:09.389Z,54.42
2022-11-01T09:50:40.171Z,54.17
2022-11-01T09:53:18.323Z,54.03
2022-11-01T09:55:55.937Z,53.97
2022-11-01T09:58:37.993Z,53.80
2022-11-01T10:01:27.273Z,53.78
2022-11-01T10:04:32.483Z,53.57
2022-11-01T10:07:08.573Z,53.43
2022-11-01T10:09:48.399Z,53.52
2022-11-01T10:12:33.551Z,53.67
2022-11-01T10:15:29.423Z,53.25
2022-11-01T10:18:08.080Z,53.28
2022-11-01T10:20:41.183Z,52.82
2022-11-01T10:23:13.562Z,53.13
2022-11-01T10:25:48.922Z,53.34
2022-11-01T10:28:23.773Z,53.32
2022-11-01T10:30:58.574Z,53.32
2022-11-01T10:33:33.029Z,53.31
2022-11-01T10:36:06.976Z,53.17
2022-11-01T10:39:10.701Z,53.09
2022-11-01T10:41:33.325Z,53.26
2022-11-01T10:44:05.771Z,53.22
2022-11-01T10:46:41.584Z,52.63
2022-11-01T10:49:24.594Z,52.55
2022-11-01T10:52:00.281Z,52.58
2022-11-01T10:54:32.384Z,52.78
2022-11-01T10:57:07.374Z,52.26
2022-11-01T10:59:41.331Z,51.71
2022-11-01T11:02:19.520Z,51.30
2022-11-01T11:04:50.020Z,51.64
2022-11-01T11:07:23.986Z,51.35
2022-11-01T11:09:52.847Z,50.82
2022-11-01T11:12:24.980Z,50.30
2022-11-01T11:14:59.093Z,49.83
2022-11-01T11:17:32.622Z,49.57
2022-11-01T11:20:06.029Z,49.34
2022-11-01T11:22:40.589Z,49.05
2022-11-01T11:25:17.733Z,48.88
2022-11-01T11:27:48.609Z,48.30
2022-11-01T11:30:30.332Z,48.04
2022-11-01T11:33:00.289Z,47.77
2022-11-01T11:35:32.793Z,47.03
2022-11-01T11:38:06.278Z,46.74
2022-11-01T11:40:46.733Z,46.28
2022-11-01T11:43:24.553Z,45.65
2022-11-01T11:46:08.929Z,45.50
2022-11-01T11:48:48.686Z,44.50
2022-11-01T11:51:17.449Z,43.77
2022-11-01T11:54:21.219Z,44.41
2022-11-01T11:56:52.884Z,42.99
2022-11-01T11:59:26.897Z,42.89
2022-11-01T12:02:05.710Z,42.80
2022-11-01T12:04:41.834Z,42.08
2022-11-01T12:07:35.423Z,42.39
2022-11-01T12:10:28.327Z,41.56
2022-11-01T12:12:57.443Z,41.04
2022-11-01T12:15:34.406Z,41.23
2022-11-01T12:18:16.045Z,40.74
2022-11-01T12:20:49.896Z,40.08
2022-11-01T12:23:28.269Z,39.92
2022-11-01T12:26:00.893Z,39.83
2022-11-01T12:28:36.779Z,39.87
2022-11-01T12:31:12.923Z,39.49
2022-11-01T12:33:48.542Z,39.30
2022-11-01T12:36:19.127Z,39.58
2022-11-01T12:38:50.597Z,38.96
2022-11-01T12:41:32.894Z,39.39
2022-11-01T12:44:17.884Z,38.75
2022-11-01T12:46:51.623Z,38.46
2022-11-01T12:49:31.899Z,38.05
2022-11-01T12:52:09.014Z,37.80
2022-11-01T12:54:43.476Z,37.41
2022-11-01T12:57:19.333Z,37.48
2022-11-01T12:59:49.638Z,37.30
2022-11-01T13:02:59.273Z,37.80
2022-11-01T13:05:40.224Z,38.23
2022-11-01T13:08:22.185Z,37.84
2022-11-01T13:10:51.329Z,37.87
2022-11-01T13:13:29.410Z,38.58
2022-11-01T13:16:06.150Z,38.87
2022-11-01T13:18:48.457Z,39.17
2022-11-01T13:21:28.839Z,39.15
2022-11-01T13:24:05.509Z,39.57
2022-11-01T13:26:41.523Z,39.70
2022-11-01T13:29:18.580Z,39.62
2022-11-01T13:32:02.200Z,39.66
2022-11-01T13:34:45.803Z,39.65
2022-11-01T13:37:26.149Z,39.82
2022-11-01T13:40:15.696Z,39.93
2022-11-01T13:42:52.555Z,40.19
2022-11-01T13:46:07.045Z,40.49
2022-11-01T13:48:55.335Z,40.74
2022-11-01T13:51:40.227Z,40.55
2022-11-01T13:54:22.968Z,41.28
2022-11-01T13:57:00.110Z,41.44
2022-11-01T13:59:34.319Z,41.34
2022-11-01T14:02:57.242Z,41.74
2022-11-01T14:05:39.997Z,41.86
2022-11-01T14:08:34.506Z,41.68
2022-11-01T14:11:03.088Z,41.92
2022-11-01T14:13:37.982Z,41.78
2022-11-01T14:16:22.747Z,42.32
2022-11-01T14:19:20.534Z,42.33
2022-11-01T14:21:54.261Z,42.24
2022-11-01T14:24:35.156Z,42.51
2022-11-01T14:27:24.433Z,42.41
2022-11-01T14:29:54.535Z,42.73
2022-11-01T14:32:26.427Z,43.16
2022-11-01T14:35:06.279Z,43.46
2022-11-01T14:37:42.190Z,43.14
2022-11-01T14:40:34.242Z,43.83
2022-11-01T14:43:12.956Z,43.56
2022-11-01T14:45:46.703Z,43.86
2022-11-01T14:48:23.521Z,44.12
2022-11-01T14:51:00.765Z,44.39
2022-11-01T14:53:34.870Z,44.43
2022-11-01T14:56:18.446Z,44.63
2022-11-01T14:58:47.853Z,44.50
2022-11-01T15:01:20.744Z,44.47
2022-11-01T15:03:57.318Z,44.71
2022-11-01T15:06:30.417Z,44.95
2022-11-01T15:09:00.515Z,45.36
2022-11-01T15:11:31.734Z,45.31
2022-11-01T15:14:03.294Z,45.58
2022-11-01T15:16:35.848Z,45.44
2022-11-01T15:19:08.974Z,45.64
2022-11-01T15:21:47.441Z,45.79
2022-11-01T15:24:26.094Z,45.88
2022-11-01T15:26:55.548Z,46.05
2022-11-01T15:29:26.081Z,46.22
2022-11-01T15:32:00.578Z,46.37
2022-11-01T15:34:32.346Z,46.25
2022-11-01T15:37:12.173Z,46.56
2022-11-01T15:39:41.155Z,46.51
2022-11-01T15:42:16.102Z,46.79
2022-11-01T15:44:46.309Z,46.93
2022-11-01T15:47:20.107Z,46.95
2022-11-01T15:49:54.747Z,47.10
2022-11-01T15:52:27.579Z,47.36
2022-11-01T15:55:03.605Z,47.35
2022-11-01T15:57:38.905Z,47.57
2022-11-01T16:00:18.335Z,47.69
2022-11-01T16:02:51.382Z,47.75
2022-11-01T16:05:24.598Z,47.79
2022-11-01T16:07:55.792Z,47.93
2022-11-01T16:10:27.921Z,47.84
2022-11-01T16:12:57.713Z,47.99
2022-11-01T16:15:29.881Z,48.24
2022-11-01T16:18:00.292Z,48.11
2022-11-01T16:20:36.784Z,48.30
2022-11-01T16:23:07.529Z,48.29
2022-11-01T16:25:38.619Z,48.32
2022-11-01T16:28:30.750Z,48.39
2022-11-01T16:30:59.632Z,48.43
2022-11-01T16:33:43.114Z,48.36
2022-11-01T16:36:36.961Z,48.20
2022-11-01T16:39:30.937Z,48.32
2022-11-01T16:42:00.202Z,48.42
2022-11-01T16:44:29.798Z,48.31
2022-11-01T16:46:58.801Z,48.40
2022-11-01T16:49:30.841Z,48.49
2022-11-01T16:52:00.446Z,48.62
2022-11-01T16:54:30.620Z,48.60
2022-11-01T16:56:59.757Z,48.67
2022-11-01T16:59:37.017Z,48.79
2022-11-01T17:02:19.025Z,48.81
2022-11-01T17:04:52.154Z,48.83
2022-11-01T17:07:21.875Z,48.83
2022-11-01T17:09:52.882Z,48.94
2022-11-01T17:12:21.814Z,49.09
2022-11-01T17:14:52.626Z,49.03
2022-11-01T17:17:24.934Z,49.07
2022-11-01T17:20:04.603Z,49.19
2022-11-01T17:22:39.608Z,49.20
2022-11-01T17:25:20.336Z,49.41
2022-11-01T17:27:52.810Z,49.30
2022-11-01T17:30:23.254Z,49.47
2022-11-01T17:32:52.015Z,49.49
2022-11-01T17:35:24.231Z,49.61
2022-11-01T17:37:57.271Z,49.58
2022-11-01T17:40:28.188Z,49.63
2022-11-01T17:42:57.361Z,49.75
2022-11-01T17:45:26.808Z,49.74
2022-11-01T17:47:58.097Z,49.84
2022-11-01T17:50:28.475Z,49.92
2022-11-01T17:52:58.697Z,49.91
2022-11-01T17:55:30.238Z,50.03
2022-11-01T17:57:59.346Z,49.91
2022-11-01T18:00:29.170Z,50.05
2022-11-01T18:02:59.113Z,49.85
2022-11-01T18:05:28.639Z,49.99
2022-11-01T18:07:58.362Z,50.02
2022-11-01T18:10:43.201Z,50.04
2022-11-01T18:13:37.705Z,50.23
2022-11-01T18:16:19.766Z,50.21
2022-11-01T18:19:07.759Z,50.19
2022-11-01T18:21:52.473Z,50.28
2022-11-01T18:24:28.948Z,50.31
2022-11-01T18:27:01.114Z,50.28
2022-11-01T18:29:34.238Z,50.28
2022-11-01T18:32:18.768Z,50.42
2022-11-01T18:34:56.402Z,50.32
2022-11-01T18:37:32.815Z,50.45
2022-11-01T18:40:14.190Z,50.31
2022-11-01T18:42:48.179Z,50.30
2022-11-01T18:45:29.756Z,50.33
2022-11-01T18:48:21.393Z,50.35
2022-11-01T18:50:51.973Z,50.37
2022-11-01T18:53:22.966Z,50.34
2022-11-01T18:55:52.730Z,50.31
2022-11-01T18:58:29.299Z,50.38
2022-11-01T19:01:12.151Z,50.35
2022-11-01T19:03:43.588Z,50.44
2022-11-01T19:06:22.013Z,50.39
2022-11-01T19:08:57.263Z,50.46
2022-11-01T19:11:30.136Z,50.45
2022-11-01T19:14:03.483Z,50.67
2022-11-01T19:16:38.658Z,50.68
2022-11-01T19:19:16.518Z,50.69
2022-11-01T19:21:46.961Z,50.61
2022-11-01T19:24:32.565Z,50.78
2022-11-01T19:27:02.876Z,50.72
2022-11-01T19:29:37.640Z,50.76
2022-11-01T19:32:18.190Z,50.99
2022-11-01T19:34:52.080Z,50.89
2022-11-01T19:37:30.451Z,51.05
2022-11-01T19:40:07.053Z,51.11
2022-11-01T19:42:37.585Z,51.10
2022-11-01T19:45:35.605Z,50.96
2022-11-01T19:48:13.127Z,51.16
2022-11-01T19:50:44.963Z,51.04
2022-11-01T19:53:24.075Z,51.08
2022-11-01T19:56:00.803Z,51.14
2022-11-01T19:58:38.823Z,51.09
2022-11-01T20:01:41.928Z,51.18
2022-11-01T20:04:31.576Z,51.05
2022-11-01T20:07:13.034Z,51.03
2022-11-01T20:09:45.184Z,51.07
2022-11-01T20:12:19.991Z,51.09
2022-11-01T20:14:52.267Z,51.12
2022-11-01T20:17:25.001Z,50.98
2022-11-01T20:19:57.274Z,51.04
2022-11-01T20:22:32.665Z,51.00
2022-11-01T20:25:06.594Z,51.14
2022-11-01T20:27:37.259Z,51.02
2022-11-01T20:30:11.013Z,51.17
2022-11-01T20:32:46.416Z,51.02
2022-11-01T20:35:17.805Z,51.00
2022-11-01T20:37:48.141Z,51.22
2022-11-01T20:40:18.565Z,51.20
2022-11-01T20:42:47.673Z,51.13
2022-11-01T20:45:19.259Z,51.25
2022-11-01T20:47:50.634Z,51.39
2022-11-01T20:50:21.599Z,51.35
2022-11-01T20:52:51.963Z,51.45
2022-11-01T20:55:21.556Z,51.44
2022-11-01T20:57:52.336Z,51.50
2022-11-01T21:00:22.669Z,51.56
2022-11-01T21:02:53.670Z,51.55
2022-11-01T21:05:27.683Z,51.55
2022-11-01T21:08:02.251Z,51.58
2022-11-01T21:10:34.918Z,51.57
2022-11-01T21:13:05.912Z,51.50
2022-11-01T21:15:40.958Z,51.75
2022-11-01T21:18:46.072Z,51.57
2022-11-01T21:21:42.422Z,51.72
2022-11-01T21:24:33.843Z,51.76
2022-11-01T21:27:24.615Z,51.69
2022-11-01T21:29:59.764Z,51.71
2022-11-01T21:32:34.929Z,51.59
2022-11-01T21:35:38.387Z,51.72
2022-11-01T21:38:36.073Z,51.53
2022-11-01T21:41:26.782Z,51.72
2022-11-01T21:43:57.121Z,51.60
2022-11-01T21:46:38.409Z,51.63
2022-11-01T21:49:25.659Z,51.82
2022-11-01T21:51:57.785Z,51.59
2022-11-01T21:54:26.493Z,51.66
2022-11-01T21:56:55.026Z,51.63
2022-11-01T21:59:23.861Z,51.77
2022-11-01T22:01:52.307Z,51.61
2022-11-01T22:04:23.356Z,51.67
2022-11-01T22:06:56.005Z,51.68
2022-11-01T22:09:24.426Z,51.61
2022-11-01T22:11:52.788Z,51.69
2022-11-01T22:14:21.447Z,51.58
2022-11-01T22:16:49.864Z,51.55
2022-11-01T22:19:18.312Z,51.68
2022-11-01T22:24:21.599Z,51.71
2022-11-01T22:26:49.958Z,51.73
2022-11-01T22:29:18.354Z,51.74
2022-11-01T22:31:46.953Z,51.82
2022-11-01T22:34:17.345Z,51.77
2022-11-01T22:36:45.798Z,51.78
2022-11-01T22:39:18.461Z,51.73
2022-11-01T22:41:48.548Z,51.83
2022-11-01T22:44:20.067Z,51.80
2022-11-01T22:46:56.987Z,51.87
2022-11-01T22:49:30.365Z,51.91
2022-11-01T22:52:03.360Z,51.98
2022-11-01T22:54:38.638Z,52.09
2022-11-01T22:57:17.720Z,51.98
2022-11-01T22:59:49.897Z,51.99
2022-11-01T23:02:28.152Z,51.95
2022-11-01T23:05:20.289Z,51.92
2022-11-01T23:07:51.059Z,52.02
2022-11-01T23:10:27.702Z,52.02
2022-11-01T23:13:31.620Z,51.98
2022-11-01T23:16:02.376Z,52.20
2022-11-01T23:18:33.998Z,52.27
2022-11-01T23:21:06.705Z,52.16
2022-11-01T23:23:37.843Z,52.18
2022-11-01T23:26:06.663Z,52.12
2022-11-01T23:28:37.301Z,52.17
2022-11-01T23:31:06.339Z,52.15
2022-11-01T23:33:40.769Z,52.16
2022-11-01T23:36:19.606Z,52.21
2022-11-01T23:38:52.237Z,52.16
2022-11-01T23:41:26.655Z,52.33
2022-11-01T23:44:01.361Z,52.29
2022-11-01T23:46:30.295Z,52.32
2022-11-01T23:49:04.353Z,52.37
2022-11-01T23:51:32.750Z,52.38
2022-11-01T23:54:01.238Z,52.44
2022-11-01T23:56:29.840Z,52.36
2022-11-01T23:59:05.061Z,52.53
